sensor_id;sensor_type;location;lat;lon;timestamp;temperature;humidity
15546;DHT22;7874;48.870;11.074;2023-07-13T00:00:02;20.00;99.90
15546;DHT22;7874;48.870;11.074;2023-07-13T00:02:45;20.00;99.90
15546;DHT22;7874;48.870;11.074;2023-07-13T00:05:13;20.00;99.90
15546;DHT22;7874;48.870;11.074;2023-07-13T00:07:42;19.90;99.90
15546;DHT22;7874;48.870;11.074;2023-07-13T00:10:15;19.90;99.90
15546;DHT22;7874;48.870;11.074;2023-07-13T00:12:43;19.90;99.90
15546;DHT22;7874;48.870;11.074;2023-07-13T00:15:14;19.90;99.90
15546;DHT22;7874;48.870;11.074;2023-07-13T00:17:43;20.00;99.90
15546;DHT22;7874;48.870;11.074;2023-07-13T00:20:11;20.00;99.90
15546;DHT22;7874;48.870;11.074;2023-07-13T00:22:39;20.00;99.90
15546;DHT22;7874;48.870;11.074;2023-07-13T00:25:09;20.00;99.90
15546;DHT22;7874;48.870;11.074;2023-07-13T00:27:39;20.00;99.90
15546;DHT22;7874;48.870;11.074;2023-07-13T00:30:11;20.00;99.90
15546;DHT22;7874;48.870;11.074;2023-07-13T00:32:38;20.00;99.90
15546;DHT22;7874;48.870;11.074;2023-07-13T00:35:07;20.00;99.90
15546;DHT22;7874;48.870;11.074;2023-07-13T00:37:35;20.00;99.90
15546;DHT22;7874;48.870;11.074;2023-07-13T00:40:02;20.00;99.90
15546;DHT22;7874;48.870;11.074;2023-07-13T00:42:33;20.10;99.90
15546;DHT22;7874;48.870;11.074;2023-07-13T00:48:16;20.00;99.90
15546;DHT22;7874;48.870;11.074;2023-07-13T00:50:53;20.10;99.90
15546;DHT22;7874;48.870;11.074;2023-07-13T00:53:25;20.00;99.90
15546;DHT22;7874;48.870;11.074;2023-07-13T00:56:01;20.00;99.90
15546;DHT22;7874;48.870;11.074;2023-07-13T00:58:34;20.00;99.90
15546;DHT22;7874;48.870;11.074;2023-07-13T01:01:21;20.00;99.90
15546;DHT22;7874;48.870;11.074;2023-07-13T01:04:17;19.90;99.90
15546;DHT22;7874;48.870;11.074;2023-07-13T01:07:01;19.90;99.90
15546;DHT22;7874;48.870;11.074;2023-07-13T01:13:18;19.90;99.90
15546;DHT22;7874;48.870;11.074;2023-07-13T01:15:51;19.90;99.90
15546;DHT22;7874;48.870;11.074;2023-07-13T01:18:21;19.80;99.90
15546;DHT22;7874;48.870;11.074;2023-07-13T01:20:58;19.80;99.90
15546;DHT22;7874;48.870;11.074;2023-07-13T01:23:30;19.80;99.90
15546;DHT22;7874;48.870;11.074;2023-07-13T01:25:58;19.70;99.90
15546;DHT22;7874;48.870;11.074;2023-07-13T01:28:28;19.70;99.90
15546;DHT22;7874;48.870;11.074;2023-07-13T01:30:58;19.70;99.90
15546;DHT22;7874;48.870;11.074;2023-07-13T01:33:29;19.70;99.90
15546;DHT22;7874;48.870;11.074;2023-07-13T01:35:58;19.70;99.90
15546;DHT22;7874;48.870;11.074;2023-07-13T01:38:26;19.60;99.90
15546;DHT22;7874;48.870;11.074;2023-07-13T01:42:43;19.60;99.90
15546;DHT22;7874;48.870;11.074;2023-07-13T01:45:10;19.60;99.90
15546;DHT22;7874;48.870;11.074;2023-07-13T01:47:37;19.60;99.90
15546;DHT22;7874;48.870;11.074;2023-07-13T01:50:05;19.60;99.90
15546;DHT22;7874;48.870;11.074;2023-07-13T01:52:32;19.50;99.90
15546;DHT22;7874;48.870;11.074;2023-07-13T01:55:02;19.50;99.90
15546;DHT22;7874;48.870;11.074;2023-07-13T01:57:29;19.50;99.90
15546;DHT22;7874;48.870;11.074;2023-07-13T01:59:58;19.40;99.90
15546;DHT22;7874;48.870;11.074;2023-07-13T02:02:25;19.30;99.90
15546;DHT22;7874;48.870;11.074;2023-07-13T02:04:52;19.30;99.90
15546;DHT22;7874;48.870;11.074;2023-07-13T02:07:20;19.30;99.90
15546;DHT22;7874;48.870;11.074;2023-07-13T02:09:47;19.30;99.90
15546;DHT22;7874;48.870;11.074;2023-07-13T02:12:14;19.20;99.90
15546;DHT22;7874;48.870;11.074;2023-07-13T02:14:41;19.20;99.90
15546;DHT22;7874;48.870;11.074;2023-07-13T02:17:12;19.20;99.90
15546;DHT22;7874;48.870;11.074;2023-07-13T02:19:39;19.20;99.90
15546;DHT22;7874;48.870;11.074;2023-07-13T02:22:06;19.10;99.90
15546;DHT22;7874;48.870;11.074;2023-07-13T02:24:34;19.10;99.90
15546;DHT22;7874;48.870;11.074;2023-07-13T02:27:04;19.10;99.90
15546;DHT22;7874;48.870;11.074;2023-07-13T02:29:31;19.00;99.90
15546;DHT22;7874;48.870;11.074;2023-07-13T02:31:59;18.90;99.90
15546;DHT22;7874;48.870;11.074;2023-07-13T02:34:27;18.90;99.90
15546;DHT22;7874;48.870;11.074;2023-07-13T02:36:55;19.00;99.90
15546;DHT22;7874;48.870;11.074;2023-07-13T02:39:22;18.90;99.90
15546;DHT22;7874;48.870;11.074;2023-07-13T02:41:49;18.90;99.90
15546;DHT22;7874;48.870;11.074;2023-07-13T02:44:16;19.00;99.90
15546;DHT22;7874;48.870;11.074;2023-07-13T02:46:44;18.90;99.90
15546;DHT22;7874;48.870;11.074;2023-07-13T02:49:11;18.90;99.90
15546;DHT22;7874;48.870;11.074;2023-07-13T02:51:40;18.80;99.90
15546;DHT22;7874;48.870;11.074;2023-07-13T02:54:07;18.80;99.90
15546;DHT22;7874;48.870;11.074;2023-07-13T02:56:34;18.70;99.90
15546;DHT22;7874;48.870;11.074;2023-07-13T02:59:04;18.80;99.90
15546;DHT22;7874;48.870;11.074;2023-07-13T03:01:32;18.70;99.90
15546;DHT22;7874;48.870;11.074;2023-07-13T03:04:01;18.60;99.90
15546;DHT22;7874;48.870;11.074;2023-07-13T03:06:28;18.60;99.90
15546;DHT22;7874;48.870;11.074;2023-07-13T03:08:57;18.60;99.90
15546;DHT22;7874;48.870;11.074;2023-07-13T03:11:26;18.60;99.90
15546;DHT22;7874;48.870;11.074;2023-07-13T03:13:53;18.60;99.90
15546;DHT22;7874;48.870;11.074;2023-07-13T03:16:20;18.60;99.90
15546;DHT22;7874;48.870;11.074;2023-07-13T03:18:48;18.50;99.90
15546;DHT22;7874;48.870;11.074;2023-07-13T03:21:16;18.50;99.90
15546;DHT22;7874;48.870;11.074;2023-07-13T03:23:43;18.50;99.90
15546;DHT22;7874;48.870;11.074;2023-07-13T03:26:14;18.50;99.90
15546;DHT22;7874;48.870;11.074;2023-07-13T03:28:41;18.50;99.90
15546;DHT22;7874;48.870;11.074;2023-07-13T03:31:11;18.50;99.90
15546;DHT22;7874;48.870;11.074;2023-07-13T03:33:42;18.50;99.90
15546;DHT22;7874;48.870;11.074;2023-07-13T03:36:12;18.50;99.90
15546;DHT22;7874;48.870;11.074;2023-07-13T03:38:40;18.40;99.90
15546;DHT22;7874;48.870;11.074;2023-07-13T03:41:07;18.50;99.90
15546;DHT22;7874;48.870;11.074;2023-07-13T03:43:36;18.50;99.90
15546;DHT22;7874;48.870;11.074;2023-07-13T03:46:03;18.50;99.90
15546;DHT22;7874;48.870;11.074;2023-07-13T03:48:30;18.50;99.90
15546;DHT22;7874;48.870;11.074;2023-07-13T03:51:03;18.40;99.90
15546;DHT22;7874;48.870;11.074;2023-07-13T03:53:30;18.40;99.90
15546;DHT22;7874;48.870;11.074;2023-07-13T03:56:00;18.40;99.90
15546;DHT22;7874;48.870;11.074;2023-07-13T03:58:30;18.40;99.90
15546;DHT22;7874;48.870;11.074;2023-07-13T04:01:00;18.40;99.90
15546;DHT22;7874;48.870;11.074;2023-07-13T04:03:28;18.30;99.90
15546;DHT22;7874;48.870;11.074;2023-07-13T04:05:58;18.40;99.90
15546;DHT22;7874;48.870;11.074;2023-07-13T04:08:26;18.30;99.90
15546;DHT22;7874;48.870;11.074;2023-07-13T04:10:53;18.20;99.90
15546;DHT22;7874;48.870;11.074;2023-07-13T04:13:24;18.20;99.90
15546;DHT22;7874;48.870;11.074;2023-07-13T04:15:51;18.20;99.90
15546;DHT22;7874;48.870;11.074;2023-07-13T04:18:19;18.20;99.90
15546;DHT22;7874;48.870;11.074;2023-07-13T04:20:46;18.20;99.90
15546;DHT22;7874;48.870;11.074;2023-07-13T05:06:42;18.50;99.90
15546;DHT22;7874;48.870;11.074;2023-07-13T06:02:15;21.10;99.90
15546;DHT22;7874;48.870;11.074;2023-07-13T06:04:42;21.00;99.90
15546;DHT22;7874;48.870;11.074;2023-07-13T06:07:09;20.80;99.90
15546;DHT22;7874;48.870;11.074;2023-07-13T06:09:36;20.90;99.90
15546;DHT22;7874;48.870;11.074;2023-07-13T06:12:07;21.20;99.90
15546;DHT22;7874;48.870;11.074;2023-07-13T06:14:34;21.40;99.90
15546;DHT22;7874;48.870;11.074;2023-07-13T06:17:01;21.20;99.90
15546;DHT22;7874;48.870;11.074;2023-07-13T06:19:29;21.00;99.90
15546;DHT22;7874;48.870;11.074;2023-07-13T06:21:56;21.20;99.90
15546;DHT22;7874;48.870;11.074;2023-07-13T06:24:24;21.30;99.90
15546;DHT22;7874;48.870;11.074;2023-07-13T06:26:50;21.20;99.90
15546;DHT22;7874;48.870;11.074;2023-07-13T06:29:17;21.10;99.90
15546;DHT22;7874;48.870;11.074;2023-07-13T06:31:44;21.10;99.90
15546;DHT22;7874;48.870;11.074;2023-07-13T06:34:11;21.10;99.90
15546;DHT22;7874;48.870;11.074;2023-07-13T06:36:39;20.90;99.90
15546;DHT22;7874;48.870;11.074;2023-07-13T06:39:06;20.70;99.90
15546;DHT22;7874;48.870;11.074;2023-07-13T06:41:34;20.80;99.90
15546;DHT22;7874;48.870;11.074;2023-07-13T06:44:00;20.90;99.90
15546;DHT22;7874;48.870;11.074;2023-07-13T06:46:28;21.20;99.90
15546;DHT22;7874;48.870;11.074;2023-07-13T06:48:56;22.00;99.90
15546;DHT22;7874;48.870;11.074;2023-07-13T06:51:22;23.00;99.90
15546;DHT22;7874;48.870;11.074;2023-07-13T06:53:51;23.10;99.90
15546;DHT22;7874;48.870;11.074;2023-07-13T06:56:18;22.90;99.90
15546;DHT22;7874;48.870;11.074;2023-07-13T06:58:44;22.70;99.90
15546;DHT22;7874;48.870;11.074;2023-07-13T07:01:11;22.50;99.90
15546;DHT22;7874;48.870;11.074;2023-07-13T07:03:38;22.20;99.90
15546;DHT22;7874;48.870;11.074;2023-07-13T07:06:13;22.10;99.90
15546;DHT22;7874;48.870;11.074;2023-07-13T07:08:40;22.40;99.90
15546;DHT22;7874;48.870;11.074;2023-07-13T07:11:12;22.50;99.90
15546;DHT22;7874;48.870;11.074;2023-07-13T07:13:40;22.60;99.90
15546;DHT22;7874;48.870;11.074;2023-07-13T07:16:07;22.60;99.90
15546;DHT22;7874;48.870;11.074;2023-07-13T07:20:23;22.60;99.90
15546;DHT22;7874;48.870;11.074;2023-07-13T07:22:50;23.00;99.90
15546;DHT22;7874;48.870;11.074;2023-07-13T07:25:17;23.10;99.90
15546;DHT22;7874;48.870;11.074;2023-07-13T07:27:44;22.90;99.90
15546;DHT22;7874;48.870;11.074;2023-07-13T07:30:12;22.60;99.90
15546;DHT22;7874;48.870;11.074;2023-07-13T07:32:40;23.00;99.90
15546;DHT22;7874;48.870;11.074;2023-07-13T07:35:08;23.20;99.90
15546;DHT22;7874;48.870;11.074;2023-07-13T07:37:37;23.40;99.90
15546;DHT22;7874;48.870;11.074;2023-07-13T07:40:05;23.50;99.90
15546;DHT22;7874;48.870;11.074;2023-07-13T07:42:32;23.50;99.90
15546;DHT22;7874;48.870;11.074;2023-07-13T07:45:01;23.40;99.90
15546;DHT22;7874;48.870;11.074;2023-07-13T07:47:28;24.10;99.50
15546;DHT22;7874;48.870;11.074;2023-07-13T07:49:55;24.80;99.20
15546;DHT22;7874;48.870;11.074;2023-07-13T07:52:22;24.70;99.30
15546;DHT22;7874;48.870;11.074;2023-07-13T07:54:50;24.40;99.20
15546;DHT22;7874;48.870;11.074;2023-07-13T07:57:17;24.70;98.10
15546;DHT22;7874;48.870;11.074;2023-07-13T07:59:44;25.10;97.90
15546;DHT22;7874;48.870;11.074;2023-07-13T08:02:11;25.40;97.10
15546;DHT22;7874;48.870;11.074;2023-07-13T08:04:38;25.80;97.30
15546;DHT22;7874;48.870;11.074;2023-07-13T08:07:05;25.40;95.30
15546;DHT22;7874;48.870;11.074;2023-07-13T08:09:32;25.60;96.10
15546;DHT22;7874;48.870;11.074;2023-07-13T08:12:00;26.10;94.90
15546;DHT22;7874;48.870;11.074;2023-07-13T08:14:27;26.10;94.80
15546;DHT22;7874;48.870;11.074;2023-07-13T08:16:54;26.30;93.60
15546;DHT22;7874;48.870;11.074;2023-07-13T08:19:20;26.10;93.20
15546;DHT22;7874;48.870;11.074;2023-07-13T08:21:47;25.50;92.80
15546;DHT22;7874;48.870;11.074;2023-07-13T08:24:14;25.30;92.70
15546;DHT22;7874;48.870;11.074;2023-07-13T08:26:44;25.30;93.30
15546;DHT22;7874;48.870;11.074;2023-07-13T08:29:12;25.40;93.70
15546;DHT22;7874;48.870;11.074;2023-07-13T08:31:38;24.90;93.20
15546;DHT22;7874;48.870;11.074;2023-07-13T08:34:08;25.10;92.70
15546;DHT22;7874;48.870;11.074;2023-07-13T08:36:34;25.60;92.70
15546;DHT22;7874;48.870;11.074;2023-07-13T08:39:02;26.20;92.70
15546;DHT22;7874;48.870;11.074;2023-07-13T08:41:28;26.30;92.20
15546;DHT22;7874;48.870;11.074;2023-07-13T08:43:58;26.70;88.80
15546;DHT22;7874;48.870;11.074;2023-07-13T08:46:33;26.70;89.20
15546;DHT22;7874;48.870;11.074;2023-07-13T08:49:03;26.40;90.50
15546;DHT22;7874;48.870;11.074;2023-07-13T08:51:38;26.60;90.80
15546;DHT22;7874;48.870;11.074;2023-07-13T08:54:19;26.60;91.40
15546;DHT22;7874;48.870;11.074;2023-07-13T08:56:48;27.10;89.40
15546;DHT22;7874;48.870;11.074;2023-07-13T08:59:20;27.20;89.20
15546;DHT22;7874;48.870;11.074;2023-07-13T09:01:58;27.70;90.10
15546;DHT22;7874;48.870;11.074;2023-07-13T09:04:31;28.30;90.20
15546;DHT22;7874;48.870;11.074;2023-07-13T09:07:05;28.40;87.00
15546;DHT22;7874;48.870;11.074;2023-07-13T09:09:42;28.60;90.00
15546;DHT22;7874;48.870;11.074;2023-07-13T09:12:17;28.70;89.10
15546;DHT22;7874;48.870;11.074;2023-07-13T09:14:47;28.90;85.30
15546;DHT22;7874;48.870;11.074;2023-07-13T09:17:20;29.10;83.60
15546;DHT22;7874;48.870;11.074;2023-07-13T09:19:53;28.60;84.20
15546;DHT22;7874;48.870;11.074;2023-07-13T09:22:25;27.80;83.50
15546;DHT22;7874;48.870;11.074;2023-07-13T09:24:58;28.00;82.20
15546;DHT22;7874;48.870;11.074;2023-07-13T09:27:30;28.70;80.40
15546;DHT22;7874;48.870;11.074;2023-07-13T09:30:22;28.80;80.90
15546;DHT22;7874;48.870;11.074;2023-07-13T09:32:53;28.30;82.90
15546;DHT22;7874;48.870;11.074;2023-07-13T09:35:23;28.10;79.70
15546;DHT22;7874;48.870;11.074;2023-07-13T09:37:58;28.20;82.30
15546;DHT22;7874;48.870;11.074;2023-07-13T09:40:30;28.20;79.90
15546;DHT22;7874;48.870;11.074;2023-07-13T09:43:00;27.90;82.30
15546;DHT22;7874;48.870;11.074;2023-07-13T09:45:30;27.50;81.00
15546;DHT22;7874;48.870;11.074;2023-07-13T09:48:05;27.20;81.30
15546;DHT22;7874;48.870;11.074;2023-07-13T09:50:34;27.00;80.20
15546;DHT22;7874;48.870;11.074;2023-07-13T09:53:01;27.50;80.10
15546;DHT22;7874;48.870;11.074;2023-07-13T09:55:30;29.00;79.20
15546;DHT22;7874;48.870;11.074;2023-07-13T09:58:03;30.20;79.70
15546;DHT22;7874;48.870;11.074;2023-07-13T10:00:30;30.90;74.80
15546;DHT22;7874;48.870;11.074;2023-07-13T10:03:02;31.50;75.70
15546;DHT22;7874;48.870;11.074;2023-07-13T10:05:37;31.80;73.90
15546;DHT22;7874;48.870;11.074;2023-07-13T10:09:07;32.00;73.80
15546;DHT22;7874;48.870;11.074;2023-07-13T10:11:40;32.10;74.90
15546;DHT22;7874;48.870;11.074;2023-07-13T10:14:13;32.50;73.00
15546;DHT22;7874;48.870;11.074;2023-07-13T10:16:42;32.90;73.40
15546;DHT22;7874;48.870;11.074;2023-07-13T10:19:15;32.90;70.70
15546;DHT22;7874;48.870;11.074;2023-07-13T10:21:50;32.70;71.20
15546;DHT22;7874;48.870;11.074;2023-07-13T10:24:23;33.00;70.30
15546;DHT22;7874;48.870;11.074;2023-07-13T10:26:55;33.00;71.00
15546;DHT22;7874;48.870;11.074;2023-07-13T10:29:25;33.00;69.10
15546;DHT22;7874;48.870;11.074;2023-07-13T10:31:53;33.30;66.50
15546;DHT22;7874;48.870;11.074;2023-07-13T10:34:22;33.10;66.70
15546;DHT22;7874;48.870;11.074;2023-07-13T10:36:49;33.40;67.30
15546;DHT22;7874;48.870;11.074;2023-07-13T10:39:18;33.40;68.70
15546;DHT22;7874;48.870;11.074;2023-07-13T10:41:49;33.10;69.10
15546;DHT22;7874;48.870;11.074;2023-07-13T10:44:22;33.40;66.70
15546;DHT22;7874;48.870;11.074;2023-07-13T10:46:53;34.10;68.10
15546;DHT22;7874;48.870;11.074;2023-07-13T10:49:20;34.10;66.40
15546;DHT22;7874;48.870;11.074;2023-07-13T10:51:47;34.20;67.50
15546;DHT22;7874;48.870;11.074;2023-07-13T10:54:17;34.20;64.70
15546;DHT22;7874;48.870;11.074;2023-07-13T10:57:16;34.00;67.30
15546;DHT22;7874;48.870;11.074;2023-07-13T10:59:46;34.60;62.90
15546;DHT22;7874;48.870;11.074;2023-07-13T11:02:23;34.40;64.60
15546;DHT22;7874;48.870;11.074;2023-07-13T11:04:53;34.80;63.20
15546;DHT22;7874;48.870;11.074;2023-07-13T11:07:22;34.80;65.20
15546;DHT22;7874;48.870;11.074;2023-07-13T11:09:50;34.70;66.90
15546;DHT22;7874;48.870;11.074;2023-07-13T11:12:51;35.00;62.80
15546;DHT22;7874;48.870;11.074;2023-07-13T11:15:38;35.10;62.20
15546;DHT22;7874;48.870;11.074;2023-07-13T11:18:20;35.20;61.90
15546;DHT22;7874;48.870;11.074;2023-07-13T11:20:49;34.90;61.30
15546;DHT22;7874;48.870;11.074;2023-07-13T11:23:30;35.10;65.00
15546;DHT22;7874;48.870;11.074;2023-07-13T11:26:00;35.60;61.00
15546;DHT22;7874;48.870;11.074;2023-07-13T11:28:31;35.70;60.80
15546;DHT22;7874;48.870;11.074;2023-07-13T11:31:12;35.40;60.40
15546;DHT22;7874;48.870;11.074;2023-07-13T11:33:57;35.30;58.60
15546;DHT22;7874;48.870;11.074;2023-07-13T11:36:30;35.20;59.80
15546;DHT22;7874;48.870;11.074;2023-07-13T11:39:02;35.20;61.50
15546;DHT22;7874;48.870;11.074;2023-07-13T11:41:31;35.20;59.30
15546;DHT22;7874;48.870;11.074;2023-07-13T11:44:14;35.20;61.00
15546;DHT22;7874;48.870;11.074;2023-07-13T11:46:46;34.80;60.20
15546;DHT22;7874;48.870;11.074;2023-07-13T11:49:16;35.20;61.20
15546;DHT22;7874;48.870;11.074;2023-07-13T11:51:44;34.80;60.50
15546;DHT22;7874;48.870;11.074;2023-07-13T11:54:20;34.40;60.80
15546;DHT22;7874;48.870;11.074;2023-07-13T11:56:49;34.60;59.40
15546;DHT22;7874;48.870;11.074;2023-07-13T11:59:18;34.60;57.90
15546;DHT22;7874;48.870;11.074;2023-07-13T12:01:49;34.60;57.30
15546;DHT22;7874;48.870;11.074;2023-07-13T12:04:36;34.60;58.30
15546;DHT22;7874;48.870;11.074;2023-07-13T13:31:39;32.80;56.90
15546;DHT22;7874;48.870;11.074;2023-07-13T13:34:08;32.80;56.50
15546;DHT22;7874;48.870;11.074;2023-07-13T13:36:34;32.90;56.40
15546;DHT22;7874;48.870;11.074;2023-07-13T13:39:01;32.30;57.70
15546;DHT22;7874;48.870;11.074;2023-07-13T13:41:30;33.10;56.30
15546;DHT22;7874;48.870;11.074;2023-07-13T13:44:00;33.60;54.20
15546;DHT22;7874;48.870;11.074;2023-07-13T13:46:31;33.80;56.40
15546;DHT22;7874;48.870;11.074;2023-07-13T13:48:59;33.60;55.90
15546;DHT22;7874;48.870;11.074;2023-07-13T13:51:26;33.50;54.80
15546;DHT22;7874;48.870;11.074;2023-07-13T13:53:53;33.50;56.40
15546;DHT22;7874;48.870;11.074;2023-07-13T13:56:20;33.30;54.00
15546;DHT22;7874;48.870;11.074;2023-07-13T13:58:47;33.50;55.20
15546;DHT22;7874;48.870;11.074;2023-07-13T14:01:17;33.80;53.80
15546;DHT22;7874;48.870;11.074;2023-07-13T14:03:45;33.70;54.50
15546;DHT22;7874;48.870;11.074;2023-07-13T14:06:16;33.40;56.10
15546;DHT22;7874;48.870;11.074;2023-07-13T14:08:43;33.10;55.10
15546;DHT22;7874;48.870;11.074;2023-07-13T14:11:11;32.70;56.50
15546;DHT22;7874;48.870;11.074;2023-07-13T14:13:42;31.70;56.70
15546;DHT22;7874;48.870;11.074;2023-07-13T14:16:11;31.00;57.10
15546;DHT22;7874;48.870;11.074;2023-07-13T14:18:38;30.50;57.30
15546;DHT22;7874;48.870;11.074;2023-07-13T14:21:11;30.20;56.70
15546;DHT22;7874;48.870;11.074;2023-07-13T14:23:41;29.70;59.10
15546;DHT22;7874;48.870;11.074;2023-07-13T14:26:11;29.50;58.70
15546;DHT22;7874;48.870;11.074;2023-07-13T14:28:41;29.40;59.70
15546;DHT22;7874;48.870;11.074;2023-07-13T14:31:09;29.40;58.40
15546;DHT22;7874;48.870;11.074;2023-07-13T14:33:35;29.40;59.40
15546;DHT22;7874;48.870;11.074;2023-07-13T14:36:03;29.30;58.90
15546;DHT22;7874;48.870;11.074;2023-07-13T14:39:00;29.20;60.60
15546;DHT22;7874;48.870;11.074;2023-07-13T14:41:28;28.90;59.70
15546;DHT22;7874;48.870;11.074;2023-07-13T14:43:54;28.50;60.30
15546;DHT22;7874;48.870;11.074;2023-07-13T14:46:29;28.40;60.70
15546;DHT22;7874;48.870;11.074;2023-07-13T14:49:02;28.30;59.70
15546;DHT22;7874;48.870;11.074;2023-07-13T14:51:29;28.30;60.30
15546;DHT22;7874;48.870;11.074;2023-07-13T14:54:02;27.70;60.30
15546;DHT22;7874;48.870;11.074;2023-07-13T14:56:29;27.70;61.30
15546;DHT22;7874;48.870;11.074;2023-07-13T14:58:57;27.80;61.60
15546;DHT22;7874;48.870;11.074;2023-07-13T15:01:24;27.70;62.50
15546;DHT22;7874;48.870;11.074;2023-07-13T15:03:52;28.00;60.70
15546;DHT22;7874;48.870;11.074;2023-07-13T15:06:19;27.90;61.00
15546;DHT22;7874;48.870;11.074;2023-07-13T15:08:47;27.90;60.90
15546;DHT22;7874;48.870;11.074;2023-07-13T15:11:16;27.50;61.70
15546;DHT22;7874;48.870;11.074;2023-07-13T15:13:44;27.40;61.00
15546;DHT22;7874;48.870;11.074;2023-07-13T15:16:15;27.40;60.50
15546;DHT22;7874;48.870;11.074;2023-07-13T15:18:44;27.30;60.60
15546;DHT22;7874;48.870;11.074;2023-07-13T15:21:14;27.30;61.00
15546;DHT22;7874;48.870;11.074;2023-07-13T15:23:42;27.20;60.80
15546;DHT22;7874;48.870;11.074;2023-07-13T15:26:12;27.30;60.60
15546;DHT22;7874;48.870;11.074;2023-07-13T15:28:43;27.40;62.80
15546;DHT22;7874;48.870;11.074;2023-07-13T15:31:20;26.90;59.60
15546;DHT22;7874;48.870;11.074;2023-07-13T15:33:48;26.80;61.80
15546;DHT22;7874;48.870;11.074;2023-07-13T15:36:16;26.80;60.80
15546;DHT22;7874;48.870;11.074;2023-07-13T15:38:43;26.60;60.20
15546;DHT22;7874;48.870;11.074;2023-07-13T15:41:19;26.70;61.00
15546;DHT22;7874;48.870;11.074;2023-07-13T15:43:50;26.70;59.70
15546;DHT22;7874;48.870;11.074;2023-07-13T15:46:38;26.90;62.10
15546;DHT22;7874;48.870;11.074;2023-07-13T15:49:09;26.60;63.10
15546;DHT22;7874;48.870;11.074;2023-07-13T15:51:36;26.50;61.60
15546;DHT22;7874;48.870;11.074;2023-07-13T15:54:04;26.40;62.10
15546;DHT22;7874;48.870;11.074;2023-07-13T15:56:34;26.20;63.10
15546;DHT22;7874;48.870;11.074;2023-07-13T15:59:01;26.40;63.20
15546;DHT22;7874;48.870;11.074;2023-07-13T16:01:30;26.50;62.10
15546;DHT22;7874;48.870;11.074;2023-07-13T16:03:59;26.70;61.70
15546;DHT22;7874;48.870;11.074;2023-07-13T16:06:28;26.70;61.90
15546;DHT22;7874;48.870;11.074;2023-07-13T16:08:56;26.80;61.90
15546;DHT22;7874;48.870;11.074;2023-07-13T16:11:27;26.60;60.90
15546;DHT22;7874;48.870;11.074;2023-07-13T16:13:54;26.50;62.50
15546;DHT22;7874;48.870;11.074;2023-07-13T16:16:22;26.50;62.60
15546;DHT22;7874;48.870;11.074;2023-07-13T16:18:52;26.40;62.20
15546;DHT22;7874;48.870;11.074;2023-07-13T16:21:22;26.20;61.50
15546;DHT22;7874;48.870;11.074;2023-07-13T16:23:50;26.20;61.90
15546;DHT22;7874;48.870;11.074;2023-07-13T16:26:25;26.30;63.60
15546;DHT22;7874;48.870;11.074;2023-07-13T16:28:54;26.20;61.70
15546;DHT22;7874;48.870;11.074;2023-07-13T16:31:32;26.20;62.40
15546;DHT22;7874;48.870;11.074;2023-07-13T16:33:58;26.30;62.40
15546;DHT22;7874;48.870;11.074;2023-07-13T16:36:28;26.30;62.50
15546;DHT22;7874;48.870;11.074;2023-07-13T16:38:56;26.40;62.30
15546;DHT22;7874;48.870;11.074;2023-07-13T16:41:26;26.40;62.50
15546;DHT22;7874;48.870;11.074;2023-07-13T16:43:53;26.20;62.30
15546;DHT22;7874;48.870;11.074;2023-07-13T16:46:23;26.10;62.20
15546;DHT22;7874;48.870;11.074;2023-07-13T16:48:50;25.90;61.60
15546;DHT22;7874;48.870;11.074;2023-07-13T16:51:17;25.70;62.20
15546;DHT22;7874;48.870;11.074;2023-07-13T16:53:45;25.70;62.80
15546;DHT22;7874;48.870;11.074;2023-07-13T16:56:18;25.70;63.20
15546;DHT22;7874;48.870;11.074;2023-07-13T16:58:45;25.60;61.90
15546;DHT22;7874;48.870;11.074;2023-07-13T17:01:12;25.60;62.70
15546;DHT22;7874;48.870;11.074;2023-07-13T17:03:39;25.60;63.40
15546;DHT22;7874;48.870;11.074;2023-07-13T17:06:21;25.40;62.70
15546;DHT22;7874;48.870;11.074;2023-07-13T17:08:52;25.40;64.90
15546;DHT22;7874;48.870;11.074;2023-07-13T17:11:21;25.40;63.60
15546;DHT22;7874;48.870;11.074;2023-07-13T17:13:52;25.40;63.90
15546;DHT22;7874;48.870;11.074;2023-07-13T17:16:20;25.30;65.40
15546;DHT22;7874;48.870;11.074;2023-07-13T17:18:50;25.30;65.20
15546;DHT22;7874;48.870;11.074;2023-07-13T17:21:17;25.10;64.20
15546;DHT22;7874;48.870;11.074;2023-07-13T17:23:44;25.10;65.10
15546;DHT22;7874;48.870;11.074;2023-07-13T17:26:12;25.10;65.30
15546;DHT22;7874;48.870;11.074;2023-07-13T17:28:40;25.10;65.50
15546;DHT22;7874;48.870;11.074;2023-07-13T17:31:16;25.10;65.00
15546;DHT22;7874;48.870;11.074;2023-07-13T17:33:45;25.00;63.70
15546;DHT22;7874;48.870;11.074;2023-07-13T17:36:14;24.90;64.40
15546;DHT22;7874;48.870;11.074;2023-07-13T17:38:46;24.90;64.10
15546;DHT22;7874;48.870;11.074;2023-07-13T17:41:17;24.90;65.80
15546;DHT22;7874;48.870;11.074;2023-07-13T17:43:45;24.90;66.70
15546;DHT22;7874;48.870;11.074;2023-07-13T17:46:14;24.90;65.70
15546;DHT22;7874;48.870;11.074;2023-07-13T17:48:43;24.90;65.80
15546;DHT22;7874;48.870;11.074;2023-07-13T17:51:12;24.90;66.80
15546;DHT22;7874;48.870;11.074;2023-07-13T17:53:39;24.80;65.80
15546;DHT22;7874;48.870;11.074;2023-07-13T17:56:08;24.70;65.80
15546;DHT22;7874;48.870;11.074;2023-07-13T17:58:36;24.70;65.70
15546;DHT22;7874;48.870;11.074;2023-07-13T18:01:04;24.60;66.40
15546;DHT22;7874;48.870;11.074;2023-07-13T18:03:33;24.50;66.50
15546;DHT22;7874;48.870;11.074;2023-07-13T18:06:12;24.50;67.10
15546;DHT22;7874;48.870;11.074;2023-07-13T18:08:44;24.40;66.50
15546;DHT22;7874;48.870;11.074;2023-07-13T18:11:11;24.40;66.80
15546;DHT22;7874;48.870;11.074;2023-07-13T18:13:41;24.40;66.80
15546;DHT22;7874;48.870;11.074;2023-07-13T18:16:14;24.20;68.00
15546;DHT22;7874;48.870;11.074;2023-07-13T18:18:43;24.20;67.00
15546;DHT22;7874;48.870;11.074;2023-07-13T18:21:11;24.20;67.60
15546;DHT22;7874;48.870;11.074;2023-07-13T18:23:38;24.10;68.60
15546;DHT22;7874;48.870;11.074;2023-07-13T18:26:09;24.10;69.40
15546;DHT22;7874;48.870;11.074;2023-07-13T18:28:36;23.90;67.70
15546;DHT22;7874;48.870;11.074;2023-07-13T18:31:04;23.80;67.70
15546;DHT22;7874;48.870;11.074;2023-07-13T18:35:29;23.90;70.00
15546;DHT22;7874;48.870;11.074;2023-07-13T18:37:56;23.70;69.30
15546;DHT22;7874;48.870;11.074;2023-07-13T18:40:23;23.70;69.50
15546;DHT22;7874;48.870;11.074;2023-07-13T18:42:52;23.70;69.80
15546;DHT22;7874;48.870;11.074;2023-07-13T18:45:20;23.60;70.30
15546;DHT22;7874;48.870;11.074;2023-07-13T18:47:50;23.60;70.60
15546;DHT22;7874;48.870;11.074;2023-07-13T18:50:20;23.50;72.10
15546;DHT22;7874;48.870;11.074;2023-07-13T18:52:50;23.40;72.10
15546;DHT22;7874;48.870;11.074;2023-07-13T18:55:19;23.30;74.00
15546;DHT22;7874;48.870;11.074;2023-07-13T18:57:48;23.10;75.00
15546;DHT22;7874;48.870;11.074;2023-07-13T19:00:21;23.10;75.00